sensor_id;sensor_type;location;lat;lon;timestamp;P1;durP1;ratioP1;P2;durP2;ratioP2
12703;SDS011;6416;52.182;7.650;2022-12-29T00:00:35;4.20;;;3.13;;
12703;SDS011;6416;52.182;7.650;2022-12-29T00:03:00;3.40;;;3.10;;
12703;SDS011;6416;52.182;7.650;2022-12-29T00:05:26;3.13;;;2.83;;
12703;SDS011;6416;52.182;7.650;2022-12-29T00:07:51;3.10;;;2.90;;
12703;SDS011;6416;52.182;7.650;2022-12-29T00:10:17;3.10;;;2.90;;
12703;SDS011;6416;52.182;7.650;2022-12-29T00:12:42;2.93;;;2.73;;
12703;SDS011;6416;52.182;7.650;2022-12-29T00:15:08;3.40;;;3.20;;
12703;SDS011;6416;52.182;7.650;2022-12-29T00:17:33;2.83;;;2.63;;
12703;SDS011;6416;52.182;7.650;2022-12-29T00:19:59;2.97;;;2.77;;
12703;SDS011;6416;52.182;7.650;2022-12-29T00:22:24;2.80;;;2.60;;
12703;SDS011;6416;52.182;7.650;2022-12-29T00:24:50;2.60;;;2.40;;
12703;SDS011;6416;52.182;7.650;2022-12-29T00:27:15;3.00;;;2.40;;
12703;SDS011;6416;52.182;7.650;2022-12-29T00:29:41;2.97;;;2.67;;
12703;SDS011;6416;52.182;7.650;2022-12-29T00:32:07;2.80;;;2.60;;
12703;SDS011;6416;52.182;7.650;2022-12-29T00:34:34;2.70;;;2.50;;
12703;SDS011;6416;52.182;7.650;2022-12-29T00:37:00;2.60;;;2.40;;
12703;SDS011;6416;52.182;7.650;2022-12-29T00:39:25;3.63;;;2.37;;
12703;SDS011;6416;52.182;7.650;2022-12-29T00:41:51;2.17;;;2.07;;
12703;SDS011;6416;52.182;7.650;2022-12-29T00:44:16;2.00;;;1.90;;
12703;SDS011;6416;52.182;7.650;2022-12-29T00:46:42;2.50;;;2.30;;
12703;SDS011;6416;52.182;7.650;2022-12-29T00:49:09;2.40;;;2.20;;
12703;SDS011;6416;52.182;7.650;2022-12-29T00:51:36;2.60;;;2.40;;
12703;SDS011;6416;52.182;7.650;2022-12-29T00:54:01;2.13;;;2.00;;
12703;SDS011;6416;52.182;7.650;2022-12-29T00:56:27;2.20;;;2.00;;
12703;SDS011;6416;52.182;7.650;2022-12-29T00:58:52;2.33;;;2.00;;
12703;SDS011;6416;52.182;7.650;2022-12-29T01:01:17;2.30;;;2.10;;
12703;SDS011;6416;52.182;7.650;2022-12-29T01:03:43;1.73;;;1.63;;
12703;SDS011;6416;52.182;7.650;2022-12-29T01:06:09;1.90;;;1.80;;
12703;SDS011;6416;52.182;7.650;2022-12-29T01:08:35;1.97;;;1.60;;
12703;SDS011;6416;52.182;7.650;2022-12-29T01:11:01;1.73;;;1.63;;
12703;SDS011;6416;52.182;7.650;2022-12-29T01:13:28;1.50;;;1.40;;
12703;SDS011;6416;52.182;7.650;2022-12-29T01:15:54;1.67;;;1.20;;
12703;SDS011;6416;52.182;7.650;2022-12-29T01:18:21;1.70;;;1.37;;
12703;SDS011;6416;52.182;7.650;2022-12-29T01:20:47;1.80;;;1.67;;
12703;SDS011;6416;52.182;7.650;2022-12-29T01:23:13;1.40;;;1.30;;
12703;SDS011;6416;52.182;7.650;2022-12-29T01:25:39;2.00;;;1.33;;
12703;SDS011;6416;52.182;7.650;2022-12-29T01:28:04;1.87;;;1.40;;
12703;SDS011;6416;52.182;7.650;2022-12-29T01:30:30;1.57;;;1.30;;
12703;SDS011;6416;52.182;7.650;2022-12-29T01:32:57;1.60;;;1.50;;
12703;SDS011;6416;52.182;7.650;2022-12-29T01:35:22;1.40;;;1.20;;
12703;SDS011;6416;52.182;7.650;2022-12-29T01:37:48;1.47;;;1.37;;
12703;SDS011;6416;52.182;7.650;2022-12-29T01:40:13;1.40;;;1.20;;
12703;SDS011;6416;52.182;7.650;2022-12-29T01:42:39;1.57;;;1.27;;
12703;SDS011;6416;52.182;7.650;2022-12-29T01:45:08;1.10;;;1.10;;
12703;SDS011;6416;52.182;7.650;2022-12-29T01:47:38;1.70;;;1.60;;
12703;SDS011;6416;52.182;7.650;2022-12-29T01:50:16;1.30;;;1.20;;
12703;SDS011;6416;52.182;7.650;2022-12-29T01:52:50;1.30;;;1.20;;
12703;SDS011;6416;52.182;7.650;2022-12-29T01:55:20;1.40;;;1.30;;
12703;SDS011;6416;52.182;7.650;2022-12-29T01:57:47;1.40;;;1.30;;
12703;SDS011;6416;52.182;7.650;2022-12-29T02:00:16;1.47;;;1.37;;
12703;SDS011;6416;52.182;7.650;2022-12-29T02:02:42;1.50;;;1.40;;
12703;SDS011;6416;52.182;7.650;2022-12-29T02:07:58;1.40;;;1.30;;
12703;SDS011;6416;52.182;7.650;2022-12-29T02:10:26;1.50;;;1.40;;
12703;SDS011;6416;52.182;7.650;2022-12-29T02:12:54;1.40;;;1.30;;
12703;SDS011;6416;52.182;7.650;2022-12-29T02:15:22;1.60;;;1.50;;
12703;SDS011;6416;52.182;7.650;2022-12-29T02:21:01;1.50;;;1.40;;
12703;SDS011;6416;52.182;7.650;2022-12-29T02:23:36;1.50;;;1.40;;
12703;SDS011;6416;52.182;7.650;2022-12-29T02:31:26;2.13;;;1.70;;
12703;SDS011;6416;52.182;7.650;2022-12-29T02:42:36;1.67;;;1.43;;
12703;SDS011;6416;52.182;7.650;2022-12-29T02:45:20;2.97;;;1.57;;
12703;SDS011;6416;52.182;7.650;2022-12-29T02:53:37;1.50;;;1.40;;
12703;SDS011;6416;52.182;7.650;2022-12-29T02:56:04;1.40;;;1.30;;
12703;SDS011;6416;52.182;7.650;2022-12-29T02:58:29;2.30;;;1.40;;
12703;SDS011;6416;52.182;7.650;2022-12-29T03:06:51;1.10;;;1.00;;
12703;SDS011;6416;52.182;7.650;2022-12-29T03:12:46;1.00;;;1.00;;
12703;SDS011;6416;52.182;7.650;2022-12-29T03:14:58;1.10;;;1.00;;
12703;SDS011;6416;52.182;7.650;2022-12-29T03:20:06;1.27;;;1.00;;
12703;SDS011;6416;52.182;7.650;2022-12-29T03:22:35;1.10;;;1.00;;
12703;SDS011;6416;52.182;7.650;2022-12-29T03:25:19;0.97;;;0.80;;
12703;SDS011;6416;52.182;7.650;2022-12-29T03:27:55;1.00;;;0.90;;
12703;SDS011;6416;52.182;7.650;2022-12-29T03:30:23;1.20;;;0.90;;
12703;SDS011;6416;52.182;7.650;2022-12-29T03:32:52;0.90;;;0.90;;
12703;SDS011;6416;52.182;7.650;2022-12-29T03:35:21;2.80;;;0.80;;
12703;SDS011;6416;52.182;7.650;2022-12-29T03:37:50;0.80;;;0.80;;
12703;SDS011;6416;52.182;7.650;2022-12-29T03:40:27;0.80;;;0.70;;
12703;SDS011;6416;52.182;7.650;2022-12-29T03:42:54;1.83;;;1.00;;
12703;SDS011;6416;52.182;7.650;2022-12-29T03:45:20;1.13;;;1.03;;
12703;SDS011;6416;52.182;7.650;2022-12-29T03:47:46;0.83;;;0.80;;
12703;SDS011;6416;52.182;7.650;2022-12-29T03:50:12;0.73;;;0.73;;
12703;SDS011;6416;52.182;7.650;2022-12-29T03:52:38;1.17;;;1.00;;
12703;SDS011;6416;52.182;7.650;2022-12-29T03:55:04;1.77;;;1.13;;
12703;SDS011;6416;52.182;7.650;2022-12-29T03:57:29;2.67;;;0.90;;
12703;SDS011;6416;52.182;7.650;2022-12-29T03:59:55;1.90;;;0.90;;
12703;SDS011;6416;52.182;7.650;2022-12-29T04:02:20;1.10;;;1.00;;
12703;SDS011;6416;52.182;7.650;2022-12-29T04:04:46;0.90;;;0.80;;
12703;SDS011;6416;52.182;7.650;2022-12-29T04:07:11;1.10;;;1.00;;
12703;SDS011;6416;52.182;7.650;2022-12-29T04:09:37;1.97;;;1.00;;
12703;SDS011;6416;52.182;7.650;2022-12-29T04:12:02;1.03;;;0.80;;
12703;SDS011;6416;52.182;7.650;2022-12-29T04:14:28;1.60;;;1.00;;
12703;SDS011;6416;52.182;7.650;2022-12-29T04:16:53;0.97;;;0.90;;
12703;SDS011;6416;52.182;7.650;2022-12-29T04:19:19;1.13;;;0.80;;
12703;SDS011;6416;52.182;7.650;2022-12-29T04:21:44;1.60;;;1.07;;
12703;SDS011;6416;52.182;7.650;2022-12-29T04:24:10;2.03;;;1.13;;
12703;SDS011;6416;52.182;7.650;2022-12-29T04:26:35;1.63;;;1.27;;
12703;SDS011;6416;52.182;7.650;2022-12-29T04:29:01;1.87;;;1.07;;
12703;SDS011;6416;52.182;7.650;2022-12-29T04:31:26;1.27;;;0.93;;
12703;SDS011;6416;52.182;7.650;2022-12-29T04:33:52;4.30;;;1.47;;
12703;SDS011;6416;52.182;7.650;2022-12-29T04:36:17;1.47;;;1.17;;
12703;SDS011;6416;52.182;7.650;2022-12-29T04:38:43;1.80;;;0.80;;
12703;SDS011;6416;52.182;7.650;2022-12-29T04:41:08;2.07;;;1.00;;
12703;SDS011;6416;52.182;7.650;2022-12-29T04:43:33;2.73;;;1.27;;
12703;SDS011;6416;52.182;7.650;2022-12-29T04:45:59;1.30;;;1.00;;
12703;SDS011;6416;52.182;7.650;2022-12-29T04:48:24;1.57;;;1.40;;
12703;SDS011;6416;52.182;7.650;2022-12-29T04:50:50;1.30;;;1.10;;
12703;SDS011;6416;52.182;7.650;2022-12-29T04:53:16;1.03;;;0.90;;
12703;SDS011;6416;52.182;7.650;2022-12-29T04:55:42;1.20;;;1.00;;
12703;SDS011;6416;52.182;7.650;2022-12-29T04:58:07;0.90;;;0.80;;
12703;SDS011;6416;52.182;7.650;2022-12-29T05:00:33;1.10;;;1.00;;
12703;SDS011;6416;52.182;7.650;2022-12-29T05:02:59;1.83;;;1.00;;
12703;SDS011;6416;52.182;7.650;2022-12-29T05:05:24;0.73;;;0.73;;
12703;SDS011;6416;52.182;7.650;2022-12-29T05:07:50;0.80;;;0.77;;
12703;SDS011;6416;52.182;7.650;2022-12-29T05:10:15;1.50;;;0.90;;
12703;SDS011;6416;52.182;7.650;2022-12-29T05:12:41;0.70;;;0.70;;
12703;SDS011;6416;52.182;7.650;2022-12-29T05:15:07;1.53;;;0.90;;
12703;SDS011;6416;52.182;7.650;2022-12-29T05:17:33;0.90;;;0.80;;
12703;SDS011;6416;52.182;7.650;2022-12-29T05:19:58;0.83;;;0.70;;
12703;SDS011;6416;52.182;7.650;2022-12-29T05:22:24;0.87;;;0.70;;
12703;SDS011;6416;52.182;7.650;2022-12-29T05:24:50;0.60;;;0.60;;
12703;SDS011;6416;52.182;7.650;2022-12-29T05:27:16;1.43;;;0.70;;
12703;SDS011;6416;52.182;7.650;2022-12-29T05:29:41;3.10;;;0.70;;
12703;SDS011;6416;52.182;7.650;2022-12-29T05:32:07;2.17;;;0.70;;
12703;SDS011;6416;52.182;7.650;2022-12-29T05:34:32;2.90;;;0.60;;
12703;SDS011;6416;52.182;7.650;2022-12-29T05:36:58;0.50;;;0.50;;
12703;SDS011;6416;52.182;7.650;2022-12-29T05:39:23;0.50;;;0.50;;
12703;SDS011;6416;52.182;7.650;2022-12-29T05:41:49;0.50;;;0.50;;
12703;SDS011;6416;52.182;7.650;2022-12-29T05:44:14;0.53;;;0.53;;
12703;SDS011;6416;52.182;7.650;2022-12-29T05:46:40;1.90;;;0.70;;
12703;SDS011;6416;52.182;7.650;2022-12-29T05:49:05;1.23;;;0.70;;
12703;SDS011;6416;52.182;7.650;2022-12-29T05:51:31;0.50;;;0.50;;
12703;SDS011;6416;52.182;7.650;2022-12-29T05:53:57;0.73;;;0.50;;
12703;SDS011;6416;52.182;7.650;2022-12-29T05:56:22;1.27;;;0.60;;
12703;SDS011;6416;52.182;7.650;2022-12-29T05:58:48;0.60;;;0.60;;
12703;SDS011;6416;52.182;7.650;2022-12-29T06:01:13;0.40;;;0.40;;
12703;SDS011;6416;52.182;7.650;2022-12-29T06:03:39;0.50;;;0.50;;
12703;SDS011;6416;52.182;7.650;2022-12-29T06:06:04;0.73;;;0.43;;
12703;SDS011;6416;52.182;7.650;2022-12-29T06:08:30;1.00;;;0.50;;
12703;SDS011;6416;52.182;7.650;2022-12-29T06:10:55;1.23;;;0.50;;
12703;SDS011;6416;52.182;7.650;2022-12-29T06:13:21;0.77;;;0.50;;
12703;SDS011;6416;52.182;7.650;2022-12-29T06:15:47;1.43;;;0.60;;
12703;SDS011;6416;52.182;7.650;2022-12-29T06:18:13;1.23;;;0.67;;
12703;SDS011;6416;52.182;7.650;2022-12-29T06:20:39;0.70;;;0.63;;
12703;SDS011;6416;52.182;7.650;2022-12-29T06:23:05;1.87;;;0.90;;
12703;SDS011;6416;52.182;7.650;2022-12-29T06:25:31;1.03;;;0.60;;
12703;SDS011;6416;52.182;7.650;2022-12-29T06:27:56;1.77;;;0.87;;
12703;SDS011;6416;52.182;7.650;2022-12-29T06:30:22;1.43;;;0.90;;
12703;SDS011;6416;52.182;7.650;2022-12-29T06:32:47;0.83;;;0.60;;
12703;SDS011;6416;52.182;7.650;2022-12-29T06:35:13;1.90;;;0.67;;
12703;SDS011;6416;52.182;7.650;2022-12-29T06:37:38;1.93;;;0.80;;
12703;SDS011;6416;52.182;7.650;2022-12-29T06:40:04;2.03;;;0.83;;
12703;SDS011;6416;52.182;7.650;2022-12-29T06:42:30;2.50;;;0.80;;
12703;SDS011;6416;52.182;7.650;2022-12-29T06:44:55;2.73;;;1.13;;
12703;SDS011;6416;52.182;7.650;2022-12-29T06:47:21;1.53;;;0.80;;
12703;SDS011;6416;52.182;7.650;2022-12-29T06:49:46;1.87;;;0.70;;
12703;SDS011;6416;52.182;7.650;2022-12-29T06:52:12;1.30;;;0.80;;
12703;SDS011;6416;52.182;7.650;2022-12-29T06:54:37;1.27;;;0.70;;
12703;SDS011;6416;52.182;7.650;2022-12-29T06:57:03;3.57;;;1.00;;
12703;SDS011;6416;52.182;7.650;2022-12-29T06:59:28;1.70;;;0.70;;
12703;SDS011;6416;52.182;7.650;2022-12-29T07:01:53;2.57;;;0.90;;
12703;SDS011;6416;52.182;7.650;2022-12-29T07:04:19;1.43;;;0.80;;
12703;SDS011;6416;52.182;7.650;2022-12-29T07:06:45;1.67;;;0.80;;
12703;SDS011;6416;52.182;7.650;2022-12-29T07:09:10;1.23;;;0.90;;
12703;SDS011;6416;52.182;7.650;2022-12-29T07:11:36;3.30;;;1.23;;
12703;SDS011;6416;52.182;7.650;2022-12-29T07:14:02;3.00;;;0.87;;
12703;SDS011;6416;52.182;7.650;2022-12-29T07:16:28;2.87;;;1.30;;
12703;SDS011;6416;52.182;7.650;2022-12-29T07:18:54;1.33;;;0.93;;
12703;SDS011;6416;52.182;7.650;2022-12-29T07:21:19;1.63;;;1.30;;
12703;SDS011;6416;52.182;7.650;2022-12-29T07:23:45;2.13;;;1.00;;
12703;SDS011;6416;52.182;7.650;2022-12-29T07:26:11;1.10;;;0.70;;
12703;SDS011;6416;52.182;7.650;2022-12-29T07:28:38;2.53;;;1.13;;
12703;SDS011;6416;52.182;7.650;2022-12-29T07:31:04;3.17;;;1.10;;
12703;SDS011;6416;52.182;7.650;2022-12-29T07:33:30;2.80;;;1.10;;
12703;SDS011;6416;52.182;7.650;2022-12-29T07:35:56;1.47;;;0.83;;
12703;SDS011;6416;52.182;7.650;2022-12-29T07:38:22;3.40;;;0.90;;
12703;SDS011;6416;52.182;7.650;2022-12-29T07:40:48;2.17;;;1.10;;
12703;SDS011;6416;52.182;7.650;2022-12-29T07:43:13;2.03;;;0.70;;
12703;SDS011;6416;52.182;7.650;2022-12-29T07:45:39;1.90;;;0.93;;
12703;SDS011;6416;52.182;7.650;2022-12-29T07:48:05;2.80;;;1.10;;
12703;SDS011;6416;52.182;7.650;2022-12-29T07:50:31;2.03;;;0.90;;
12703;SDS011;6416;52.182;7.650;2022-12-29T07:52:56;2.77;;;0.90;;
12703;SDS011;6416;52.182;7.650;2022-12-29T07:55:21;2.07;;;1.00;;
12703;SDS011;6416;52.182;7.650;2022-12-29T07:57:47;3.40;;;1.20;;
12703;SDS011;6416;52.182;7.650;2022-12-29T08:00:12;4.07;;;1.20;;
12703;SDS011;6416;52.182;7.650;2022-12-29T08:02:38;1.93;;;1.00;;
12703;SDS011;6416;52.182;7.650;2022-12-29T08:05:04;4.13;;;0.90;;
12703;SDS011;6416;52.182;7.650;2022-12-29T08:07:30;2.13;;;1.10;;
12703;SDS011;6416;52.182;7.650;2022-12-29T08:09:55;2.50;;;0.90;;
12703;SDS011;6416;52.182;7.650;2022-12-29T08:12:21;1.97;;;0.97;;
12703;SDS011;6416;52.182;7.650;2022-12-29T08:14:46;3.03;;;0.90;;
12703;SDS011;6416;52.182;7.650;2022-12-29T08:17:12;3.63;;;1.17;;
12703;SDS011;6416;52.182;7.650;2022-12-29T08:19:37;2.17;;;0.90;;
12703;SDS011;6416;52.182;7.650;2022-12-29T08:22:03;2.63;;;1.00;;
12703;SDS011;6416;52.182;7.650;2022-12-29T08:24:28;4.07;;;1.20;;
12703;SDS011;6416;52.182;7.650;2022-12-29T08:26:54;2.67;;;1.27;;
12703;SDS011;6416;52.182;7.650;2022-12-29T08:29:19;1.97;;;1.00;;
12703;SDS011;6416;52.182;7.650;2022-12-29T08:31:45;2.27;;;0.87;;
12703;SDS011;6416;52.182;7.650;2022-12-29T08:34:10;2.50;;;1.10;;
12703;SDS011;6416;52.182;7.650;2022-12-29T08:36:36;2.30;;;1.10;;
12703;SDS011;6416;52.182;7.650;2022-12-29T08:39:01;2.63;;;1.07;;
12703;SDS011;6416;52.182;7.650;2022-12-29T08:41:27;3.27;;;1.03;;
12703;SDS011;6416;52.182;7.650;2022-12-29T08:43:52;2.33;;;1.20;;
12703;SDS011;6416;52.182;7.650;2022-12-29T08:46:18;2.13;;;1.00;;
12703;SDS011;6416;52.182;7.650;2022-12-29T08:48:43;1.83;;;0.90;;
12703;SDS011;6416;52.182;7.650;2022-12-29T08:51:10;3.70;;;1.17;;
12703;SDS011;6416;52.182;7.650;2022-12-29T08:53:35;1.43;;;0.93;;
12703;SDS011;6416;52.182;7.650;2022-12-29T08:56:01;3.60;;;1.50;;
12703;SDS011;6416;52.182;7.650;2022-12-29T08:58:27;4.60;;;1.27;;
12703;SDS011;6416;52.182;7.650;2022-12-29T09:00:53;2.60;;;1.07;;
12703;SDS011;6416;52.182;7.650;2022-12-29T09:03:20;3.50;;;1.20;;
12703;SDS011;6416;52.182;7.650;2022-12-29T09:05:50;5.53;;;1.30;;
12703;SDS011;6416;52.182;7.650;2022-12-29T09:08:16;3.53;;;1.30;;
12703;SDS011;6416;52.182;7.650;2022-12-29T09:10:42;3.37;;;1.20;;
12703;SDS011;6416;52.182;7.650;2022-12-29T09:13:08;2.77;;;1.30;;
12703;SDS011;6416;52.182;7.650;2022-12-29T09:15:34;2.43;;;1.00;;
12703;SDS011;6416;52.182;7.650;2022-12-29T09:17:59;2.20;;;1.20;;
12703;SDS011;6416;52.182;7.650;2022-12-29T09:20:25;3.17;;;1.30;;
12703;SDS011;6416;52.182;7.650;2022-12-29T09:22:50;6.27;;;1.70;;
12703;SDS011;6416;52.182;7.650;2022-12-29T09:25:16;4.30;;;1.30;;
12703;SDS011;6416;52.182;7.650;2022-12-29T09:27:42;2.17;;;1.10;;
12703;SDS011;6416;52.182;7.650;2022-12-29T09:30:08;4.47;;;1.40;;
12703;SDS011;6416;52.182;7.650;2022-12-29T09:32:35;2.70;;;0.90;;
12703;SDS011;6416;52.182;7.650;2022-12-29T09:35:01;3.90;;;1.50;;
12703;SDS011;6416;52.182;7.650;2022-12-29T09:37:27;6.80;;;1.40;;
12703;SDS011;6416;52.182;7.650;2022-12-29T09:39:52;2.67;;;1.37;;
12703;SDS011;6416;52.182;7.650;2022-12-29T09:42:19;3.17;;;1.20;;
12703;SDS011;6416;52.182;7.650;2022-12-29T09:45:03;2.05;;;1.17;;
12703;SDS011;6416;52.182;7.650;2022-12-29T09:47:29;4.03;;;1.45;;
12703;SDS011;6416;52.182;7.650;2022-12-29T09:52:37;3.45;;;1.52;;
12703;SDS011;6416;52.182;7.650;2022-12-29T09:55:10;3.85;;;1.20;;
12703;SDS011;6416;52.182;7.650;2022-12-29T10:00:13;2.10;;;1.27;;
12703;SDS011;6416;52.182;7.650;2022-12-29T10:05:50;4.50;;;1.40;;
12703;SDS011;6416;52.182;7.650;2022-12-29T10:19:55;3.28;;;1.50;;
12703;SDS011;6416;52.182;7.650;2022-12-29T10:22:32;4.78;;;1.33;;
12703;SDS011;6416;52.182;7.650;2022-12-29T10:25:16;3.38;;;1.52;;
12703;SDS011;6416;52.182;7.650;2022-12-29T10:27:46;4.03;;;1.38;;
12703;SDS011;6416;52.182;7.650;2022-12-29T10:30:13;4.07;;;1.50;;
12703;SDS011;6416;52.182;7.650;2022-12-29T10:32:44;2.33;;;1.20;;
12703;SDS011;6416;52.182;7.650;2022-12-29T10:37:52;5.00;;;1.10;;
12703;SDS011;6416;52.182;7.650;2022-12-29T10:40:40;3.33;;;1.33;;
12703;SDS011;6416;52.182;7.650;2022-12-29T10:43:20;4.25;;;1.40;;
12703;SDS011;6416;52.182;7.650;2022-12-29T10:45:47;5.85;;;1.50;;
12703;SDS011;6416;52.182;7.650;2022-12-29T10:48:20;2.80;;;1.38;;
12703;SDS011;6416;52.182;7.650;2022-12-29T10:50:49;3.80;;;1.40;;
12703;SDS011;6416;52.182;7.650;2022-12-29T10:53:22;3.67;;;1.10;;
12703;SDS011;6416;52.182;7.650;2022-12-29T10:55:51;3.77;;;1.40;;
12703;SDS011;6416;52.182;7.650;2022-12-29T10:58:18;3.07;;;1.47;;
12703;SDS011;6416;52.182;7.650;2022-12-29T11:00:48;1.97;;;1.10;;
12703;SDS011;6416;52.182;7.650;2022-12-29T11:03:22;2.67;;;1.13;;
12703;SDS011;6416;52.182;7.650;2022-12-29T11:05:56;3.23;;;1.70;;
12703;SDS011;6416;52.182;7.650;2022-12-29T11:08:24;2.93;;;1.10;;
12703;SDS011;6416;52.182;7.650;2022-12-29T11:11:00;4.77;;;1.33;;
12703;SDS011;6416;52.182;7.650;2022-12-29T11:13:28;3.57;;;1.20;;
12703;SDS011;6416;52.182;7.650;2022-12-29T11:15:55;4.33;;;1.40;;
12703;SDS011;6416;52.182;7.650;2022-12-29T11:18:54;3.23;;;1.57;;
12703;SDS011;6416;52.182;7.650;2022-12-29T11:21:32;3.43;;;1.53;;
12703;SDS011;6416;52.182;7.650;2022-12-29T11:24:03;4.70;;;1.50;;
12703;SDS011;6416;52.182;7.650;2022-12-29T11:26:31;2.77;;;1.27;;
12703;SDS011;6416;52.182;7.650;2022-12-29T11:29:15;4.90;;;1.50;;
12703;SDS011;6416;52.182;7.650;2022-12-29T11:31:48;4.07;;;1.57;;
12703;SDS011;6416;52.182;7.650;2022-12-29T11:34:19;5.13;;;1.40;;
12703;SDS011;6416;52.182;7.650;2022-12-29T11:36:45;3.63;;;1.50;;
12703;SDS011;6416;52.182;7.650;2022-12-29T11:39:30;3.70;;;1.10;;
12703;SDS011;6416;52.182;7.650;2022-12-29T11:42:03;4.83;;;1.20;;
12703;SDS011;6416;52.182;7.650;2022-12-29T11:44:34;4.30;;;1.53;;
12703;SDS011;6416;52.182;7.650;2022-12-29T11:47:02;3.60;;;1.53;;
12703;SDS011;6416;52.182;7.650;2022-12-29T11:49:28;4.60;;;1.30;;
12703;SDS011;6416;52.182;7.650;2022-12-29T11:51:54;3.70;;;1.40;;
12703;SDS011;6416;52.182;7.650;2022-12-29T11:54:33;3.60;;;1.53;;
12703;SDS011;6416;52.182;7.650;2022-12-29T11:57:09;2.97;;;1.23;;
12703;SDS011;6416;52.182;7.650;2022-12-29T11:59:40;2.20;;;1.23;;
12703;SDS011;6416;52.182;7.650;2022-12-29T12:04:51;4.07;;;1.60;;
12703;SDS011;6416;52.182;7.650;2022-12-29T12:07:22;2.10;;;1.10;;
12703;SDS011;6416;52.182;7.650;2022-12-29T12:10:04;3.43;;;1.30;;
12703;SDS011;6416;52.182;7.650;2022-12-29T12:12:33;2.43;;;1.40;;
12703;SDS011;6416;52.182;7.650;2022-12-29T12:15:08;3.47;;;1.33;;
12703;SDS011;6416;52.182;7.650;2022-12-29T12:20:32;3.83;;;1.50;;
12703;SDS011;6416;52.182;7.650;2022-12-29T12:26:04;1.70;;;0.90;;
12703;SDS011;6416;52.182;7.650;2022-12-29T12:31:39;3.17;;;1.20;;
12703;SDS011;6416;52.182;7.650;2022-12-29T12:34:22;2.87;;;1.20;;
12703;SDS011;6416;52.182;7.650;2022-12-29T12:45:44;3.10;;;1.10;;
12703;SDS011;6416;52.182;7.650;2022-12-29T12:48:28;3.07;;;1.33;;
12703;SDS011;6416;52.182;7.650;2022-12-29T12:51:19;3.10;;;1.23;;
12703;SDS011;6416;52.182;7.650;2022-12-29T12:57:03;3.47;;;1.53;;
12703;SDS011;6416;52.182;7.650;2022-12-29T13:02:28;3.90;;;1.50;;
12703;SDS011;6416;52.182;7.650;2022-12-29T13:10:52;2.53;;;1.30;;
12703;SDS011;6416;52.182;7.650;2022-12-29T13:16:03;3.83;;;1.50;;
12703;SDS011;6416;52.182;7.650;2022-12-29T13:18:44;3.30;;;1.30;;
12703;SDS011;6416;52.182;7.650;2022-12-29T13:21:29;3.47;;;1.30;;
12703;SDS011;6416;52.182;7.650;2022-12-29T13:24:32;3.30;;;1.50;;
12703;SDS011;6416;52.182;7.650;2022-12-29T13:27:05;5.27;;;1.60;;
12703;SDS011;6416;52.182;7.650;2022-12-29T13:29:41;2.97;;;1.47;;
12703;SDS011;6416;52.182;7.650;2022-12-29T13:37:52;2.73;;;1.20;;
12703;SDS011;6416;52.182;7.650;2022-12-29T13:40:26;1.90;;;1.20;;
12703;SDS011;6416;52.182;7.650;2022-12-29T13:42:57;2.93;;;1.40;;
12703;SDS011;6416;52.182;7.650;2022-12-29T13:45:24;3.70;;;1.33;;
12703;SDS011;6416;52.182;7.650;2022-12-29T13:50:26;5.13;;;1.50;;
12703;SDS011;6416;52.182;7.650;2022-12-29T13:55:40;2.43;;;1.20;;
12703;SDS011;6416;52.182;7.650;2022-12-29T13:58:27;3.47;;;1.23;;
12703;SDS011;6416;52.182;7.650;2022-12-29T14:01:22;3.40;;;1.53;;
12703;SDS011;6416;52.182;7.650;2022-12-29T14:04:15;3.90;;;1.50;;
12703;SDS011;6416;52.182;7.650;2022-12-29T14:07:23;3.03;;;1.50;;
12703;SDS011;6416;52.182;7.650;2022-12-29T14:09:52;3.53;;;1.57;;
12703;SDS011;6416;52.182;7.650;2022-12-29T14:14:50;3.20;;;1.50;;
12703;SDS011;6416;52.182;7.650;2022-12-29T14:17:19;5.67;;;1.80;;
12703;SDS011;6416;52.182;7.650;2022-12-29T14:19:45;3.57;;;1.63;;
12703;SDS011;6416;52.182;7.650;2022-12-29T14:22:22;4.23;;;1.40;;
12703;SDS011;6416;52.182;7.650;2022-12-29T14:24:49;2.50;;;1.40;;
12703;SDS011;6416;52.182;7.650;2022-12-29T14:34:49;6.37;;;1.90;;
12703;SDS011;6416;52.182;7.650;2022-12-29T14:39:54;6.07;;;1.60;;
12703;SDS011;6416;52.182;7.650;2022-12-29T14:42:30;4.07;;;1.70;;
12703;SDS011;6416;52.182;7.650;2022-12-29T14:52:31;7.00;;;1.70;;
12703;SDS011;6416;52.182;7.650;2022-12-29T14:54:58;4.03;;;1.60;;
12703;SDS011;6416;52.182;7.650;2022-12-29T14:57:48;5.50;;;1.53;;
12703;SDS011;6416;52.182;7.650;2022-12-29T15:02:49;4.83;;;1.40;;
12703;SDS011;6416;52.182;7.650;2022-12-29T15:05:29;4.60;;;1.50;;
12703;SDS011;6416;52.182;7.650;2022-12-29T15:08:06;4.47;;;1.63;;
12703;SDS011;6416;52.182;7.650;2022-12-29T15:10:33;3.90;;;1.40;;
12703;SDS011;6416;52.182;7.650;2022-12-29T15:13:04;3.80;;;1.30;;
12703;SDS011;6416;52.182;7.650;2022-12-29T15:15:38;2.70;;;1.33;;
12703;SDS011;6416;52.182;7.650;2022-12-29T15:18:23;3.93;;;1.67;;
12703;SDS011;6416;52.182;7.650;2022-12-29T15:20:53;3.07;;;1.30;;
12703;SDS011;6416;52.182;7.650;2022-12-29T15:23:23;4.17;;;1.43;;
12703;SDS011;6416;52.182;7.650;2022-12-29T15:25:54;3.30;;;1.40;;
12703;SDS011;6416;52.182;7.650;2022-12-29T15:28:24;2.47;;;1.40;;
12703;SDS011;6416;52.182;7.650;2022-12-29T15:30:54;5.47;;;1.57;;
12703;SDS011;6416;52.182;7.650;2022-12-29T15:33:22;4.43;;;1.50;;
12703;SDS011;6416;52.182;7.650;2022-12-29T15:35:49;4.57;;;1.77;;
12703;SDS011;6416;52.182;7.650;2022-12-29T15:38:20;5.63;;;2.10;;
12703;SDS011;6416;52.182;7.650;2022-12-29T15:40:49;3.93;;;1.63;;
12703;SDS011;6416;52.182;7.650;2022-12-29T15:45:59;3.07;;;1.53;;
12703;SDS011;6416;52.182;7.650;2022-12-29T15:48:26;2.70;;;1.10;;
12703;SDS011;6416;52.182;7.650;2022-12-29T15:50:52;2.40;;;1.30;;
12703;SDS011;6416;52.182;7.650;2022-12-29T15:53:19;4.00;;;1.80;;
12703;SDS011;6416;52.182;7.650;2022-12-29T15:55:48;3.03;;;1.70;;
12703;SDS011;6416;52.182;7.650;2022-12-29T15:58:21;1.60;;;1.40;;
12703;SDS011;6416;52.182;7.650;2022-12-29T16:00:49;2.73;;;1.20;;
12703;SDS011;6416;52.182;7.650;2022-12-29T16:03:20;3.20;;;1.33;;
12703;SDS011;6416;52.182;7.650;2022-12-29T16:05:58;3.00;;;1.80;;
12703;SDS011;6416;52.182;7.650;2022-12-29T16:08:34;3.90;;;1.60;;
12703;SDS011;6416;52.182;7.650;2022-12-29T16:11:01;1.67;;;1.20;;
12703;SDS011;6416;52.182;7.650;2022-12-29T16:16:17;2.93;;;1.40;;
12703;SDS011;6416;52.182;7.650;2022-12-29T16:18:49;3.03;;;1.27;;
12703;SDS011;6416;52.182;7.650;2022-12-29T16:21:23;1.83;;;1.30;;
12703;SDS011;6416;52.182;7.650;2022-12-29T16:24:05;4.93;;;1.40;;
12703;SDS011;6416;52.182;7.650;2022-12-29T16:26:36;4.43;;;1.40;;
12703;SDS011;6416;52.182;7.650;2022-12-29T16:29:04;3.67;;;1.60;;
12703;SDS011;6416;52.182;7.650;2022-12-29T16:34:12;2.97;;;1.20;;
12703;SDS011;6416;52.182;7.650;2022-12-29T16:36:57;3.70;;;1.40;;
12703;SDS011;6416;52.182;7.650;2022-12-29T16:39:30;3.53;;;1.57;;
12703;SDS011;6416;52.182;7.650;2022-12-29T16:41:58;2.43;;;1.50;;
12703;SDS011;6416;52.182;7.650;2022-12-29T16:46:57;1.37;;;1.00;;
12703;SDS011;6416;52.182;7.650;2022-12-29T16:49:29;3.03;;;1.37;;
12703;SDS011;6416;52.182;7.650;2022-12-29T16:51:56;3.20;;;1.80;;
12703;SDS011;6416;52.182;7.650;2022-12-29T16:54:28;2.10;;;1.33;;
12703;SDS011;6416;52.182;7.650;2022-12-29T16:56:54;2.27;;;1.20;;
12703;SDS011;6416;52.182;7.650;2022-12-29T16:59:39;2.87;;;1.20;;
12703;SDS011;6416;52.182;7.650;2022-12-29T17:02:07;3.10;;;1.50;;
12703;SDS011;6416;52.182;7.650;2022-12-29T17:04:38;5.20;;;1.57;;
12703;SDS011;6416;52.182;7.650;2022-12-29T17:07:07;3.03;;;1.30;;
12703;SDS011;6416;52.182;7.650;2022-12-29T17:09:43;4.87;;;1.60;;
12703;SDS011;6416;52.182;7.650;2022-12-29T17:12:09;3.53;;;1.40;;
12703;SDS011;6416;52.182;7.650;2022-12-29T17:17:16;4.50;;;1.70;;
12703;SDS011;6416;52.182;7.650;2022-12-29T17:19:45;3.33;;;1.53;;
12703;SDS011;6416;52.182;7.650;2022-12-29T17:22:24;3.10;;;1.33;;
12703;SDS011;6416;52.182;7.650;2022-12-29T17:24:54;3.07;;;1.43;;
12703;SDS011;6416;52.182;7.650;2022-12-29T17:27:23;2.97;;;1.67;;
12703;SDS011;6416;52.182;7.650;2022-12-29T17:29:52;3.03;;;1.40;;
12703;SDS011;6416;52.182;7.650;2022-12-29T17:32:21;3.87;;;1.80;;